sensor_id;sensor_type;location;lat;lon;timestamp;P1;durP1;ratioP1;P2;durP2;ratioP2
26598;SDS011;14240;51.064;16.612;2023-02-26T00:01:32;58.33;;;21.13;;
26598;SDS011;14240;51.064;16.612;2023-02-26T00:03:59;27.17;;;9.30;;
26598;SDS011;14240;51.064;16.612;2023-02-26T00:06:26;29.52;;;8.50;;
26598;SDS011;14240;51.064;16.612;2023-02-26T00:08:53;21.27;;;6.35;;
26598;SDS011;14240;51.064;16.612;2023-02-26T00:11:20;16.90;;;6.70;;
26598;SDS011;14240;51.064;16.612;2023-02-26T00:13:46;23.67;;;6.57;;
26598;SDS011;14240;51.064;16.612;2023-02-26T00:16:32;21.10;;;6.70;;
26598;SDS011;14240;51.064;16.612;2023-02-26T00:19:02;16.23;;;6.22;;
26598;SDS011;14240;51.064;16.612;2023-02-26T00:21:30;20.10;;;5.20;;
26598;SDS011;14240;51.064;16.612;2023-02-26T00:23:57;18.40;;;6.38;;
26598;SDS011;14240;51.064;16.612;2023-02-26T00:26:24;21.05;;;5.80;;
26598;SDS011;14240;51.064;16.612;2023-02-26T00:28:51;10.07;;;4.68;;
26598;SDS011;14240;51.064;16.612;2023-02-26T00:31:17;20.77;;;6.10;;
26598;SDS011;14240;51.064;16.612;2023-02-26T00:33:45;18.42;;;6.57;;
26598;SDS011;14240;51.064;16.612;2023-02-26T00:41:23;12.90;;;5.68;;
26598;SDS011;14240;51.064;16.612;2023-02-26T00:43:49;35.20;;;15.43;;
26598;SDS011;14240;51.064;16.612;2023-02-26T00:46:21;32.67;;;9.77;;
26598;SDS011;14240;51.064;16.612;2023-02-26T00:52:14;27.95;;;7.85;;
26598;SDS011;14240;51.064;16.612;2023-02-26T00:55:00;29.35;;;8.30;;
26598;SDS011;14240;51.064;16.612;2023-02-26T00:57:26;32.97;;;10.23;;
26598;SDS011;14240;51.064;16.612;2023-02-26T00:59:52;20.88;;;5.20;;
26598;SDS011;14240;51.064;16.612;2023-02-26T01:02:18;30.85;;;8.70;;
26598;SDS011;14240;51.064;16.612;2023-02-26T01:04:44;33.13;;;9.23;;
26598;SDS011;14240;51.064;16.612;2023-02-26T01:07:10;31.67;;;7.47;;
26598;SDS011;14240;51.064;16.612;2023-02-26T01:09:37;34.78;;;8.93;;
26598;SDS011;14240;51.064;16.612;2023-02-26T01:12:07;21.27;;;6.00;;
26598;SDS011;14240;51.064;16.612;2023-02-26T01:14:35;22.08;;;7.63;;
26598;SDS011;14240;51.064;16.612;2023-02-26T01:19:54;27.42;;;7.97;;
26598;SDS011;14240;51.064;16.612;2023-02-26T01:22:29;24.88;;;7.05;;
26598;SDS011;14240;51.064;16.612;2023-02-26T01:25:12;24.33;;;7.13;;
26598;SDS011;14240;51.064;16.612;2023-02-26T01:27:42;24.33;;;6.40;;
26598;SDS011;14240;51.064;16.612;2023-02-26T01:30:08;18.95;;;7.30;;
26598;SDS011;14240;51.064;16.612;2023-02-26T01:37:45;18.58;;;5.95;;
26598;SDS011;14240;51.064;16.612;2023-02-26T01:43:38;18.15;;;6.45;;
26598;SDS011;14240;51.064;16.612;2023-02-26T01:49:15;15.10;;;7.07;;
26598;SDS011;14240;51.064;16.612;2023-02-26T01:54:18;12.85;;;5.03;;
26598;SDS011;14240;51.064;16.612;2023-02-26T01:56:47;16.17;;;5.78;;
26598;SDS011;14240;51.064;16.612;2023-02-26T01:59:17;11.93;;;5.65;;
26598;SDS011;14240;51.064;16.612;2023-02-26T02:01:48;12.98;;;5.38;;
26598;SDS011;14240;51.064;16.612;2023-02-26T02:04:19;10.45;;;4.15;;
26598;SDS011;14240;51.064;16.612;2023-02-26T02:09:12;10.23;;;4.00;;
26598;SDS011;14240;51.064;16.612;2023-02-26T02:31:01;10.63;;;4.35;;
26598;SDS011;14240;51.064;16.612;2023-02-26T02:33:46;8.13;;;4.53;;
26598;SDS011;14240;51.064;16.612;2023-02-26T02:36:26;7.70;;;4.13;;
26598;SDS011;14240;51.064;16.612;2023-02-26T02:39:36;7.82;;;4.55;;
26598;SDS011;14240;51.064;16.612;2023-02-26T02:42:08;14.38;;;5.45;;
26598;SDS011;14240;51.064;16.612;2023-02-26T02:44:50;7.53;;;3.50;;
26598;SDS011;14240;51.064;16.612;2023-02-26T02:47:22;6.47;;;4.28;;
26598;SDS011;14240;51.064;16.612;2023-02-26T02:49:58;9.82;;;4.05;;
26598;SDS011;14240;51.064;16.612;2023-02-26T02:52:37;9.00;;;4.43;;
26598;SDS011;14240;51.064;16.612;2023-02-26T02:55:11;10.27;;;4.32;;
26598;SDS011;14240;51.064;16.612;2023-02-26T02:58:12;10.23;;;4.65;;
26598;SDS011;14240;51.064;16.612;2023-02-26T03:00:46;6.80;;;3.33;;
26598;SDS011;14240;51.064;16.612;2023-02-26T03:05:41;7.22;;;3.20;;
26598;SDS011;14240;51.064;16.612;2023-02-26T03:08:11;6.93;;;3.83;;
26598;SDS011;14240;51.064;16.612;2023-02-26T03:10:39;6.38;;;4.15;;
26598;SDS011;14240;51.064;16.612;2023-02-26T03:13:05;8.07;;;3.83;;
26598;SDS011;14240;51.064;16.612;2023-02-26T03:15:44;8.60;;;3.20;;
26598;SDS011;14240;51.064;16.612;2023-02-26T03:20:58;5.40;;;3.00;;
26598;SDS011;14240;51.064;16.612;2023-02-26T03:24:06;8.93;;;3.90;;
26598;SDS011;14240;51.064;16.612;2023-02-26T03:26:34;6.47;;;3.40;;
26598;SDS011;14240;51.064;16.612;2023-02-26T03:31:55;4.15;;;2.40;;
26598;SDS011;14240;51.064;16.612;2023-02-26T03:34:26;5.35;;;3.10;;
26598;SDS011;14240;51.064;16.612;2023-02-26T03:37:06;4.18;;;2.90;;
26598;SDS011;14240;51.064;16.612;2023-02-26T03:39:40;4.18;;;2.90;;
26598;SDS011;14240;51.064;16.612;2023-02-26T03:42:14;7.35;;;3.13;;
26598;SDS011;14240;51.064;16.612;2023-02-26T03:44:46;6.53;;;3.55;;
26598;SDS011;14240;51.064;16.612;2023-02-26T03:47:21;7.95;;;3.63;;
26598;SDS011;14240;51.064;16.612;2023-02-26T03:49:49;5.30;;;3.50;;
26598;SDS011;14240;51.064;16.612;2023-02-26T03:52:27;7.82;;;3.40;;
26598;SDS011;14240;51.064;16.612;2023-02-26T03:55:00;7.03;;;3.97;;
26598;SDS011;14240;51.064;16.612;2023-02-26T03:57:32;12.38;;;5.68;;
26598;SDS011;14240;51.064;16.612;2023-02-26T03:59:58;7.30;;;2.75;;
26598;SDS011;14240;51.064;16.612;2023-02-26T04:02:32;3.53;;;2.20;;
26598;SDS011;14240;51.064;16.612;2023-02-26T04:05:06;3.30;;;2.55;;
26598;SDS011;14240;51.064;16.612;2023-02-26T04:07:39;5.25;;;2.38;;
26598;SDS011;14240;51.064;16.612;2023-02-26T04:10:05;4.22;;;2.45;;
26598;SDS011;14240;51.064;16.612;2023-02-26T04:12:33;5.40;;;2.13;;
26598;SDS011;14240;51.064;16.612;2023-02-26T04:14:59;3.28;;;2.25;;
26598;SDS011;14240;51.064;16.612;2023-02-26T04:17:26;6.57;;;2.88;;
26598;SDS011;14240;51.064;16.612;2023-02-26T04:19:51;3.55;;;2.40;;
26598;SDS011;14240;51.064;16.612;2023-02-26T04:22:17;3.85;;;2.58;;
26598;SDS011;14240;51.064;16.612;2023-02-26T04:24:43;4.53;;;1.98;;
26598;SDS011;14240;51.064;16.612;2023-02-26T04:27:09;3.60;;;2.15;;
26598;SDS011;14240;51.064;16.612;2023-02-26T04:29:35;3.85;;;2.10;;
26598;SDS011;14240;51.064;16.612;2023-02-26T04:32:01;3.13;;;2.33;;
26598;SDS011;14240;51.064;16.612;2023-02-26T04:34:27;2.83;;;2.20;;
26598;SDS011;14240;51.064;16.612;2023-02-26T04:36:53;2.28;;;2.08;;
26598;SDS011;14240;51.064;16.612;2023-02-26T04:39:19;5.03;;;2.40;;
26598;SDS011;14240;51.064;16.612;2023-02-26T04:41:44;4.85;;;2.17;;
26598;SDS011;14240;51.064;16.612;2023-02-26T04:44:10;4.28;;;2.40;;
26598;SDS011;14240;51.064;16.612;2023-02-26T04:46:36;5.80;;;2.58;;
26598;SDS011;14240;51.064;16.612;2023-02-26T04:49:02;2.45;;;1.80;;
26598;SDS011;14240;51.064;16.612;2023-02-26T04:51:28;3.97;;;2.38;;
26598;SDS011;14240;51.064;16.612;2023-02-26T04:53:54;6.00;;;1.98;;
26598;SDS011;14240;51.064;16.612;2023-02-26T04:56:21;4.65;;;2.38;;
26598;SDS011;14240;51.064;16.612;2023-02-26T04:58:46;3.08;;;2.13;;
26598;SDS011;14240;51.064;16.612;2023-02-26T05:01:13;2.83;;;2.47;;
26598;SDS011;14240;51.064;16.612;2023-02-26T05:03:39;2.28;;;1.70;;
26598;SDS011;14240;51.064;16.612;2023-02-26T05:06:04;2.45;;;2.10;;
26598;SDS011;14240;51.064;16.612;2023-02-26T05:08:30;3.80;;;2.20;;
26598;SDS011;14240;51.064;16.612;2023-02-26T05:10:56;3.15;;;2.20;;
26598;SDS011;14240;51.064;16.612;2023-02-26T05:13:22;4.45;;;2.35;;
26598;SDS011;14240;51.064;16.612;2023-02-26T05:15:48;3.78;;;2.20;;
26598;SDS011;14240;51.064;16.612;2023-02-26T05:18:14;2.65;;;2.15;;
26598;SDS011;14240;51.064;16.612;2023-02-26T05:20:40;4.60;;;2.45;;
26598;SDS011;14240;51.064;16.612;2023-02-26T05:23:05;4.45;;;2.35;;
26598;SDS011;14240;51.064;16.612;2023-02-26T05:25:31;5.78;;;3.00;;
26598;SDS011;14240;51.064;16.612;2023-02-26T05:27:57;4.38;;;2.28;;
26598;SDS011;14240;51.064;16.612;2023-02-26T05:30:22;4.60;;;2.20;;
26598;SDS011;14240;51.064;16.612;2023-02-26T05:32:48;2.92;;;1.98;;
26598;SDS011;14240;51.064;16.612;2023-02-26T05:35:14;3.75;;;2.33;;
26598;SDS011;14240;51.064;16.612;2023-02-26T05:37:40;4.28;;;2.53;;
26598;SDS011;14240;51.064;16.612;2023-02-26T05:40:07;3.97;;;1.98;;
26598;SDS011;14240;51.064;16.612;2023-02-26T05:42:35;4.10;;;2.67;;
26598;SDS011;14240;51.064;16.612;2023-02-26T05:45:01;5.45;;;2.75;;
26598;SDS011;14240;51.064;16.612;2023-02-26T05:47:28;5.40;;;3.40;;
26598;SDS011;14240;51.064;16.612;2023-02-26T05:49:57;7.18;;;2.70;;
26598;SDS011;14240;51.064;16.612;2023-02-26T05:52:23;4.15;;;2.08;;
26598;SDS011;14240;51.064;16.612;2023-02-26T05:54:49;6.72;;;2.20;;
26598;SDS011;14240;51.064;16.612;2023-02-26T05:57:15;4.97;;;3.35;;
26598;SDS011;14240;51.064;16.612;2023-02-26T05:59:40;6.28;;;2.95;;
26598;SDS011;14240;51.064;16.612;2023-02-26T06:02:07;8.05;;;3.00;;
26598;SDS011;14240;51.064;16.612;2023-02-26T06:04:33;3.87;;;2.63;;
26598;SDS011;14240;51.064;16.612;2023-02-26T06:06:59;4.25;;;3.15;;
26598;SDS011;14240;51.064;16.612;2023-02-26T06:09:26;4.63;;;2.53;;
26598;SDS011;14240;51.064;16.612;2023-02-26T06:11:51;4.70;;;3.03;;
26598;SDS011;14240;51.064;16.612;2023-02-26T06:14:17;10.80;;;2.83;;
26598;SDS011;14240;51.064;16.612;2023-02-26T06:16:43;4.90;;;2.38;;
26598;SDS011;14240;51.064;16.612;2023-02-26T06:19:09;6.25;;;2.90;;
26598;SDS011;14240;51.064;16.612;2023-02-26T06:21:34;13.98;;;5.55;;
26598;SDS011;14240;51.064;16.612;2023-02-26T06:24:00;10.90;;;4.43;;
26598;SDS011;14240;51.064;16.612;2023-02-26T06:26:26;9.30;;;3.15;;
26598;SDS011;14240;51.064;16.612;2023-02-26T06:28:52;3.67;;;2.33;;
26598;SDS011;14240;51.064;16.612;2023-02-26T06:31:17;6.18;;;3.15;;
26598;SDS011;14240;51.064;16.612;2023-02-26T06:33:43;7.10;;;3.33;;
26598;SDS011;14240;51.064;16.612;2023-02-26T06:36:09;9.93;;;3.95;;
26598;SDS011;14240;51.064;16.612;2023-02-26T06:38:35;5.38;;;2.97;;
26598;SDS011;14240;51.064;16.612;2023-02-26T06:41:01;4.85;;;2.58;;
26598;SDS011;14240;51.064;16.612;2023-02-26T06:43:26;5.47;;;2.70;;
26598;SDS011;14240;51.064;16.612;2023-02-26T06:45:55;5.32;;;3.20;;
26598;SDS011;14240;51.064;16.612;2023-02-26T06:48:22;3.72;;;2.30;;
26598;SDS011;14240;51.064;16.612;2023-02-26T06:50:47;6.22;;;2.72;;
26598;SDS011;14240;51.064;16.612;2023-02-26T06:53:13;5.00;;;2.60;;
26598;SDS011;14240;51.064;16.612;2023-02-26T06:55:45;6.72;;;2.40;;
26598;SDS011;14240;51.064;16.612;2023-02-26T06:58:14;6.70;;;2.80;;
26598;SDS011;14240;51.064;16.612;2023-02-26T07:00:40;6.65;;;2.75;;
26598;SDS011;14240;51.064;16.612;2023-02-26T07:03:06;7.90;;;2.95;;
26598;SDS011;14240;51.064;16.612;2023-02-26T07:05:34;4.43;;;2.42;;
26598;SDS011;14240;51.064;16.612;2023-02-26T07:08:00;5.60;;;2.10;;
26598;SDS011;14240;51.064;16.612;2023-02-26T07:10:26;5.35;;;2.60;;
26598;SDS011;14240;51.064;16.612;2023-02-26T07:12:52;4.38;;;3.15;;
26598;SDS011;14240;51.064;16.612;2023-02-26T07:15:17;7.55;;;2.65;;
26598;SDS011;14240;51.064;16.612;2023-02-26T07:17:43;5.07;;;2.35;;
26598;SDS011;14240;51.064;16.612;2023-02-26T07:20:09;8.18;;;2.70;;
26598;SDS011;14240;51.064;16.612;2023-02-26T07:22:36;5.30;;;2.40;;
26598;SDS011;14240;51.064;16.612;2023-02-26T07:25:02;8.43;;;3.03;;
26598;SDS011;14240;51.064;16.612;2023-02-26T07:27:29;5.63;;;2.30;;
26598;SDS011;14240;51.064;16.612;2023-02-26T07:29:55;4.97;;;2.50;;
26598;SDS011;14240;51.064;16.612;2023-02-26T07:32:20;6.53;;;2.60;;
26598;SDS011;14240;51.064;16.612;2023-02-26T07:34:46;3.17;;;2.20;;
26598;SDS011;14240;51.064;16.612;2023-02-26T07:37:12;5.80;;;2.67;;
26598;SDS011;14240;51.064;16.612;2023-02-26T07:39:38;8.40;;;3.58;;
26598;SDS011;14240;51.064;16.612;2023-02-26T07:42:04;8.50;;;4.28;;
26598;SDS011;14240;51.064;16.612;2023-02-26T07:44:29;5.20;;;2.53;;
26598;SDS011;14240;51.064;16.612;2023-02-26T07:46:55;4.28;;;3.22;;
26598;SDS011;14240;51.064;16.612;2023-02-26T07:49:21;5.20;;;2.90;;
26598;SDS011;14240;51.064;16.612;2023-02-26T07:51:47;6.15;;;3.60;;
26598;SDS011;14240;51.064;16.612;2023-02-26T07:54:13;3.17;;;2.25;;
26598;SDS011;14240;51.064;16.612;2023-02-26T07:56:39;4.22;;;2.22;;
26598;SDS011;14240;51.064;16.612;2023-02-26T07:59:06;3.42;;;2.40;;
26598;SDS011;14240;51.064;16.612;2023-02-26T08:01:33;4.63;;;2.47;;
26598;SDS011;14240;51.064;16.612;2023-02-26T08:03:59;8.45;;;3.28;;
26598;SDS011;14240;51.064;16.612;2023-02-26T08:06:25;4.63;;;2.78;;
26598;SDS011;14240;51.064;16.612;2023-02-26T08:08:51;6.05;;;2.45;;
26598;SDS011;14240;51.064;16.612;2023-02-26T08:11:17;3.00;;;2.70;;
26598;SDS011;14240;51.064;16.612;2023-02-26T08:13:42;5.38;;;2.40;;
26598;SDS011;14240;51.064;16.612;2023-02-26T08:16:08;5.97;;;2.75;;
26598;SDS011;14240;51.064;16.612;2023-02-26T08:18:34;3.85;;;1.95;;
26598;SDS011;14240;51.064;16.612;2023-02-26T08:21:00;4.50;;;2.72;;
26598;SDS011;14240;51.064;16.612;2023-02-26T08:23:25;6.22;;;2.83;;
26598;SDS011;14240;51.064;16.612;2023-02-26T08:25:58;4.78;;;3.30;;
26598;SDS011;14240;51.064;16.612;2023-02-26T08:28:25;3.13;;;2.63;;
26598;SDS011;14240;51.064;16.612;2023-02-26T08:30:51;3.40;;;3.03;;
26598;SDS011;14240;51.064;16.612;2023-02-26T08:33:17;5.05;;;3.20;;
26598;SDS011;14240;51.064;16.612;2023-02-26T08:35:43;4.45;;;2.75;;
26598;SDS011;14240;51.064;16.612;2023-02-26T08:38:09;6.40;;;3.72;;
26598;SDS011;14240;51.064;16.612;2023-02-26T08:40:35;4.78;;;3.13;;
26598;SDS011;14240;51.064;16.612;2023-02-26T08:43:00;6.30;;;2.63;;
26598;SDS011;14240;51.064;16.612;2023-02-26T08:45:28;6.03;;;3.08;;
26598;SDS011;14240;51.064;16.612;2023-02-26T08:47:54;4.40;;;2.80;;
26598;SDS011;14240;51.064;16.612;2023-02-26T08:50:20;5.38;;;2.35;;
26598;SDS011;14240;51.064;16.612;2023-02-26T08:52:46;8.02;;;2.95;;
26598;SDS011;14240;51.064;16.612;2023-02-26T08:55:12;8.60;;;3.25;;
26598;SDS011;14240;51.064;16.612;2023-02-26T08:57:37;5.68;;;2.80;;
26598;SDS011;14240;51.064;16.612;2023-02-26T09:00:04;7.72;;;3.10;;
26598;SDS011;14240;51.064;16.612;2023-02-26T09:02:34;5.40;;;3.15;;
26598;SDS011;14240;51.064;16.612;2023-02-26T09:05:01;5.88;;;3.00;;
26598;SDS011;14240;51.064;16.612;2023-02-26T09:07:27;4.68;;;2.65;;
26598;SDS011;14240;51.064;16.612;2023-02-26T09:09:53;7.65;;;2.75;;
26598;SDS011;14240;51.064;16.612;2023-02-26T09:12:18;5.30;;;3.47;;
26598;SDS011;14240;51.064;16.612;2023-02-26T09:14:44;5.70;;;2.85;;
26598;SDS011;14240;51.064;16.612;2023-02-26T09:17:10;5.35;;;2.90;;
26598;SDS011;14240;51.064;16.612;2023-02-26T09:19:36;5.97;;;3.20;;
26598;SDS011;14240;51.064;16.612;2023-02-26T09:22:02;8.10;;;3.58;;
26598;SDS011;14240;51.064;16.612;2023-02-26T09:24:28;7.88;;;3.63;;
26598;SDS011;14240;51.064;16.612;2023-02-26T09:26:54;8.00;;;3.45;;
26598;SDS011;14240;51.064;16.612;2023-02-26T09:29:20;7.35;;;3.38;;
26598;SDS011;14240;51.064;16.612;2023-02-26T09:31:46;9.80;;;3.88;;
26598;SDS011;14240;51.064;16.612;2023-02-26T09:34:11;6.93;;;3.78;;
26598;SDS011;14240;51.064;16.612;2023-02-26T09:36:37;7.30;;;3.83;;
26598;SDS011;14240;51.064;16.612;2023-02-26T09:39:04;6.88;;;3.70;;
26598;SDS011;14240;51.064;16.612;2023-02-26T09:41:31;5.65;;;3.80;;
26598;SDS011;14240;51.064;16.612;2023-02-26T09:47:14;6.57;;;3.28;;
26598;SDS011;14240;51.064;16.612;2023-02-26T09:49:18;7.45;;;3.72;;
26598;SDS011;14240;51.064;16.612;2023-02-26T09:52:19;8.10;;;4.13;;
26598;SDS011;14240;51.064;16.612;2023-02-26T09:54:51;6.82;;;4.20;;
26598;SDS011;14240;51.064;16.612;2023-02-26T09:57:33;16.77;;;6.30;;
26598;SDS011;14240;51.064;16.612;2023-02-26T10:00:02;8.32;;;3.50;;
26598;SDS011;14240;51.064;16.612;2023-02-26T10:05:34;6.13;;;3.45;;
26598;SDS011;14240;51.064;16.612;2023-02-26T10:08:05;6.05;;;3.72;;
26598;SDS011;14240;51.064;16.612;2023-02-26T10:10:56;3.47;;;3.05;;
26598;SDS011;14240;51.064;16.612;2023-02-26T10:15:55;7.78;;;3.28;;
26598;SDS011;14240;51.064;16.612;2023-02-26T10:18:25;4.70;;;2.92;;
26598;SDS011;14240;51.064;16.612;2023-02-26T10:20:59;4.90;;;3.05;;
26598;SDS011;14240;51.064;16.612;2023-02-26T10:23:37;8.32;;;3.08;;
26598;SDS011;14240;51.064;16.612;2023-02-26T10:28:50;5.78;;;3.72;;
26598;SDS011;14240;51.064;16.612;2023-02-26T10:39:16;6.25;;;3.60;;
26598;SDS011;14240;51.064;16.612;2023-02-26T10:41:44;5.70;;;3.38;;
26598;SDS011;14240;51.064;16.612;2023-02-26T10:44:21;3.87;;;2.80;;
26598;SDS011;14240;51.064;16.612;2023-02-26T10:52:26;7.15;;;3.28;;
26598;SDS011;14240;51.064;16.612;2023-02-26T10:54:59;5.85;;;3.00;;
26598;SDS011;14240;51.064;16.612;2023-02-26T10:57:51;6.60;;;3.28;;
26598;SDS011;14240;51.064;16.612;2023-02-26T11:00:39;20.10;;;6.25;;
26598;SDS011;14240;51.064;16.612;2023-02-26T11:03:07;11.93;;;4.70;;
26598;SDS011;14240;51.064;16.612;2023-02-26T11:05:45;8.98;;;3.45;;
26598;SDS011;14240;51.064;16.612;2023-02-26T11:08:26;17.17;;;6.25;;
26598;SDS011;14240;51.064;16.612;2023-02-26T11:10:56;32.88;;;10.32;;
26598;SDS011;14240;51.064;16.612;2023-02-26T11:13:27;22.65;;;8.20;;
26598;SDS011;14240;51.064;16.612;2023-02-26T11:15:56;18.55;;;6.53;;
26598;SDS011;14240;51.064;16.612;2023-02-26T11:21:18;20.58;;;8.70;;
26598;SDS011;14240;51.064;16.612;2023-02-26T11:23:55;17.88;;;6.78;;
26598;SDS011;14240;51.064;16.612;2023-02-26T11:26:33;13.93;;;4.88;;
26598;SDS011;14240;51.064;16.612;2023-02-26T11:29:01;10.77;;;5.00;;
26598;SDS011;14240;51.064;16.612;2023-02-26T11:31:28;6.17;;;4.50;;
26598;SDS011;14240;51.064;16.612;2023-02-26T11:34:01;11.20;;;6.00;;
26598;SDS011;14240;51.064;16.612;2023-02-26T11:36:31;10.77;;;6.43;;
26598;SDS011;14240;51.064;16.612;2023-02-26T11:39:17;11.30;;;8.15;;
26598;SDS011;14240;51.064;16.612;2023-02-26T11:41:46;12.38;;;7.18;;
26598;SDS011;14240;51.064;16.612;2023-02-26T11:44:36;28.02;;;13.40;;
26598;SDS011;14240;51.064;16.612;2023-02-26T11:47:06;14.45;;;7.30;;
26598;SDS011;14240;51.064;16.612;2023-02-26T11:49:38;9.68;;;4.80;;
26598;SDS011;14240;51.064;16.612;2023-02-26T11:54:36;10.20;;;5.47;;
26598;SDS011;14240;51.064;16.612;2023-02-26T11:57:05;8.32;;;5.70;;
26598;SDS011;14240;51.064;16.612;2023-02-26T11:59:39;22.02;;;9.00;;
26598;SDS011;14240;51.064;16.612;2023-02-26T12:02:12;12.48;;;7.07;;
26598;SDS011;14240;51.064;16.612;2023-02-26T12:04:40;8.75;;;4.20;;
26598;SDS011;14240;51.064;16.612;2023-02-26T12:07:10;7.13;;;3.65;;
26598;SDS011;14240;51.064;16.612;2023-02-26T12:09:38;6.32;;;3.53;;
26598;SDS011;14240;51.064;16.612;2023-02-26T12:12:09;6.43;;;3.20;;
26598;SDS011;14240;51.064;16.612;2023-02-26T12:15:05;6.95;;;3.30;;
26598;SDS011;14240;51.064;16.612;2023-02-26T12:20:14;7.57;;;2.70;;
26598;SDS011;14240;51.064;16.612;2023-02-26T12:23:03;5.05;;;3.22;;
26598;SDS011;14240;51.064;16.612;2023-02-26T12:33:44;27.85;;;10.57;;
26598;SDS011;14240;51.064;16.612;2023-02-26T12:36:22;14.07;;;6.35;;
26598;SDS011;14240;51.064;16.612;2023-02-26T12:42:11;7.40;;;4.15;;
26598;SDS011;14240;51.064;16.612;2023-02-26T12:53:13;33.05;;;18.05;;
26598;SDS011;14240;51.064;16.612;2023-02-26T13:06:39;8.63;;;6.03;;
26598;SDS011;14240;51.064;16.612;2023-02-26T13:14:48;13.02;;;4.40;;
26598;SDS011;14240;51.064;16.612;2023-02-26T13:19:56;8.65;;;4.63;;
26598;SDS011;14240;51.064;16.612;2023-02-26T13:22:44;8.38;;;4.35;;
26598;SDS011;14240;51.064;16.612;2023-02-26T13:28:29;11.73;;;4.97;;
26598;SDS011;14240;51.064;16.612;2023-02-26T13:31:12;11.55;;;3.67;;
26598;SDS011;14240;51.064;16.612;2023-02-26T13:34:09;8.25;;;3.63;;
26598;SDS011;14240;51.064;16.612;2023-02-26T13:36:40;5.40;;;3.40;;
26598;SDS011;14240;51.064;16.612;2023-02-26T13:39:20;9.27;;;2.95;;
26598;SDS011;14240;51.064;16.612;2023-02-26T13:42:03;6.65;;;2.92;;
26598;SDS011;14240;51.064;16.612;2023-02-26T13:50:24;7.15;;;3.45;;
26598;SDS011;14240;51.064;16.612;2023-02-26T13:55:35;8.63;;;3.83;;
26598;SDS011;14240;51.064;16.612;2023-02-26T14:03:33;6.28;;;3.33;;
26598;SDS011;14240;51.064;16.612;2023-02-26T14:06:22;10.20;;;3.40;;
26598;SDS011;14240;51.064;16.612;2023-02-26T14:08:49;9.13;;;3.08;;
26598;SDS011;14240;51.064;16.612;2023-02-26T14:11:55;8.15;;;3.20;;
26598;SDS011;14240;51.064;16.612;2023-02-26T14:22:34;10.57;;;3.85;;
26598;SDS011;14240;51.064;16.612;2023-02-26T14:27:47;9.27;;;4.57;;
26598;SDS011;14240;51.064;16.612;2023-02-26T14:30:15;7.25;;;4.03;;
26598;SDS011;14240;51.064;16.612;2023-02-26T14:38:15;4.45;;;3.60;;
26598;SDS011;14240;51.064;16.612;2023-02-26T14:40:56;5.90;;;3.80;;
26598;SDS011;14240;51.064;16.612;2023-02-26T14:46:05;13.02;;;5.63;;
26598;SDS011;14240;51.064;16.612;2023-02-26T14:59:21;11.50;;;3.85;;
26598;SDS011;14240;51.064;16.612;2023-02-26T15:05:00;10.25;;;3.45;;
26598;SDS011;14240;51.064;16.612;2023-02-26T15:16:44;5.05;;;2.30;;
26598;SDS011;14240;51.064;16.612;2023-02-26T15:19:33;4.38;;;2.40;;
26598;SDS011;14240;51.064;16.612;2023-02-26T15:24:55;7.72;;;2.95;;
26598;SDS011;14240;51.064;16.612;2023-02-26T15:27:22;4.47;;;2.30;;
26598;SDS011;14240;51.064;16.612;2023-02-26T15:29:48;3.35;;;2.35;;
26598;SDS011;14240;51.064;16.612;2023-02-26T15:32:29;4.00;;;2.30;;
26598;SDS011;14240;51.064;16.612;2023-02-26T15:34:59;4.38;;;2.25;;
26598;SDS011;14240;51.064;16.612;2023-02-26T15:37:29;7.18;;;2.92;;
26598;SDS011;14240;51.064;16.612;2023-02-26T15:39:59;4.57;;;2.65;;
26598;SDS011;14240;51.064;16.612;2023-02-26T15:42:34;5.07;;;2.65;;
26598;SDS011;14240;51.064;16.612;2023-02-26T15:45:08;6.18;;;2.92;;
26598;SDS011;14240;51.064;16.612;2023-02-26T15:47:56;8.05;;;2.67;;
26598;SDS011;14240;51.064;16.612;2023-02-26T15:50:26;7.38;;;4.47;;
26598;SDS011;14240;51.064;16.612;2023-02-26T15:52:54;7.07;;;3.15;;
26598;SDS011;14240;51.064;16.612;2023-02-26T15:55:23;5.45;;;3.03;;
26598;SDS011;14240;51.064;16.612;2023-02-26T15:57:50;4.93;;;2.80;;
26598;SDS011;14240;51.064;16.612;2023-02-26T16:00:18;6.05;;;2.92;;
26598;SDS011;14240;51.064;16.612;2023-02-26T16:02:49;8.82;;;2.65;;
26598;SDS011;14240;51.064;16.612;2023-02-26T16:05:21;8.82;;;3.42;;
26598;SDS011;14240;51.064;16.612;2023-02-26T16:07:49;4.45;;;3.00;;
26598;SDS011;14240;51.064;16.612;2023-02-26T16:10:38;5.30;;;2.67;;
26598;SDS011;14240;51.064;16.612;2023-02-26T16:13:05;5.50;;;3.35;;
26598;SDS011;14240;51.064;16.612;2023-02-26T16:15:36;5.28;;;3.03;;
26598;SDS011;14240;51.064;16.612;2023-02-26T16:18:07;6.45;;;3.20;;
26598;SDS011;14240;51.064;16.612;2023-02-26T16:20:39;5.45;;;3.33;;
26598;SDS011;14240;51.064;16.612;2023-02-26T16:23:16;10.65;;;3.20;;
26598;SDS011;14240;51.064;16.612;2023-02-26T16:25:50;10.63;;;4.13;;
26598;SDS011;14240;51.064;16.612;2023-02-26T16:28:23;12.05;;;3.92;;
26598;SDS011;14240;51.064;16.612;2023-02-26T16:30:53;8.88;;;4.35;;
26598;SDS011;14240;51.064;16.612;2023-02-26T16:33:22;7.70;;;3.13;;
26598;SDS011;14240;51.064;16.612;2023-02-26T16:35:54;8.43;;;2.97;;
26598;SDS011;14240;51.064;16.612;2023-02-26T16:41:01;7.72;;;2.92;;
26598;SDS011;14240;51.064;16.612;2023-02-26T16:46:08;8.98;;;4.40;;
26598;SDS011;14240;51.064;16.612;2023-02-26T16:48:44;10.70;;;4.45;;
26598;SDS011;14240;51.064;16.612;2023-02-26T16:51:15;12.38;;;4.63;;
26598;SDS011;14240;51.064;16.612;2023-02-26T16:56:27;20.85;;;6.55;;
26598;SDS011;14240;51.064;16.612;2023-02-26T16:59:03;21.27;;;9.95;;
26598;SDS011;14240;51.064;16.612;2023-02-26T17:01:46;78.57;;;25.75;;
26598;SDS011;14240;51.064;16.612;2023-02-26T17:04:21;76.40;;;27.70;;
26598;SDS011;14240;51.064;16.612;2023-02-26T17:06:50;54.03;;;22.63;;
26598;SDS011;14240;51.064;16.612;2023-02-26T17:09:25;56.58;;;22.48;;
26598;SDS011;14240;51.064;16.612;2023-02-26T17:12:02;48.10;;;18.55;;
26598;SDS011;14240;51.064;16.612;2023-02-26T17:14:59;29.42;;;10.60;;
26598;SDS011;14240;51.064;16.612;2023-02-26T17:17:25;28.35;;;12.82;;
26598;SDS011;14240;51.064;16.612;2023-02-26T17:19:51;32.72;;;14.10;;
26598;SDS011;14240;51.064;16.612;2023-02-26T17:22:18;52.53;;;20.17;;
26598;SDS011;14240;51.064;16.612;2023-02-26T17:24:50;232.70;;;49.08;;
26598;SDS011;14240;51.064;16.612;2023-02-26T17:27:28;163.02;;;38.28;;
26598;SDS011;14240;51.064;16.612;2023-02-26T17:29:58;51.10;;;15.63;;
26598;SDS011;14240;51.064;16.612;2023-02-26T17:32:25;26.38;;;11.65;;
26598;SDS011;14240;51.064;16.612;2023-02-26T17:34:52;35.88;;;12.40;;
26598;SDS011;14240;51.064;16.612;2023-02-26T17:37:18;38.67;;;14.40;;
26598;SDS011;14240;51.064;16.612;2023-02-26T17:39:45;39.22;;;12.50;;
26598;SDS011;14240;51.064;16.612;2023-02-26T17:42:15;44.08;;;12.60;;
26598;SDS011;14240;51.064;16.612;2023-02-26T17:44:43;44.10;;;11.45;;
26598;SDS011;14240;51.064;16.612;2023-02-26T17:47:14;61.35;;;20.52;;
26598;SDS011;14240;51.064;16.612;2023-02-26T17:49:42;50.55;;;17.05;;
26598;SDS011;14240;51.064;16.612;2023-02-26T17:52:08;47.70;;;13.05;;
26598;SDS011;14240;51.064;16.612;2023-02-26T17:54:34;31.73;;;10.38;;
26598;SDS011;14240;51.064;16.612;2023-02-26T17:56:59;33.20;;;10.73;;
26598;SDS011;14240;51.064;16.612;2023-02-26T17:59:26;34.83;;;11.77;;
26598;SDS011;14240;51.064;16.612;2023-02-26T18:01:52;53.42;;;15.23;;
26598;SDS011;14240;51.064;16.612;2023-02-26T18:04:18;37.92;;;12.18;;